Time;durP1;ratioP1;P1;durP2;ratioP2;P2;SDS_P1;SDS_P2;PMS_P1;PMS_P2;Temp;Humidity;BMP_temperature;BMP_pressure;BME280_temperature;BME280_humidity;BME280_pressure;Samples;Min_cycle;Max_cycle;Signal;HPM_P1;HPM_P2
2021/10/13 00:00:35;;;;;;;9.93;5.35;;;;;;;8.97;75.76;100856.31;5014467;28;20046;-64
2021/10/13 00:03:03;;;;;;;13.93;5.57;;;;;;;9.01;75.58;100849.03;5014366;28;20050;-64
2021/10/13 00:05:31;;;;;;;11.00;5.75;;;;;;;9.11;75.43;100854.47;5014453;28;20057;-64
2021/10/13 00:07:59;;;;;;;14.45;5.65;;;;;;;9.18;75.22;100857.75;5014689;28;20054;-64
2021/10/13 00:10:27;;;;;;;11.60;6.00;;;;;;;9.17;75.05;100861.63;5014397;28;20050;-64
2021/10/13 00:12:54;;;;;;;9.10;5.25;;;;;;;9.27;74.44;100858.72;5014299;28;20069;-64
2021/10/13 00:15:22;;;;;;;13.45;5.18;;;;;;;9.29;75.17;100859.25;5014464;28;20574;-64
2021/10/13 00:17:49;;;;;;;11.07;4.63;;;;;;;9.34;74.70;100856.44;5014145;28;20061;-65
2021/10/13 00:20:17;;;;;;;11.57;5.78;;;;;;;9.43;74.56;100861.31;5014420;28;20053;-64
2021/10/13 00:22:45;;;;;;;9.32;4.63;;;;;;;9.39;74.52;100852.75;5013796;28;20057;-64
2021/10/13 00:25:13;;;;;;;11.68;5.75;;;;;;;9.42;74.02;100856.91;5013537;28;20061;-63
2021/10/13 00:27:40;;;;;;;10.18;4.80;;;;;;;9.50;73.94;100854.28;5014168;28;20064;-63
2021/10/13 00:30:09;;;;;;;11.63;4.88;;;;;;;9.51;73.59;100858.72;5013944;28;20061;-63
2021/10/13 00:32:36;;;;;;;10.02;4.55;;;;;;;9.55;73.27;100857.00;5013331;28;20058;-63
2021/10/13 00:35:06;;;;;;;7.07;4.72;;;;;;;9.60;73.41;100861.66;5013512;28;20057;-63
2021/10/13 00:37:34;;;;;;;9.73;4.90;;;;;;;9.56;72.96;100852.28;5013841;28;20061;-63
2021/10/13 00:40:03;;;;;;;10.73;4.97;;;;;;;9.55;72.69;100862.56;5012678;28;20073;-63
2021/10/13 00:42:31;;;;;;;7.72;4.82;;;;;;;9.54;72.94;100854.53;5013737;28;20488;-63
2021/10/13 00:44:58;;;;;;;10.98;5.45;;;;;;;9.57;73.48;100859.47;5013538;28;20420;-63
2021/10/13 00:47:25;;;;;;;12.10;5.45;;;;;;;9.55;73.44;100861.72;5014097;28;20485;-63
2021/10/13 00:49:53;;;;;;;9.68;4.63;;;;;;;9.58;72.80;100854.75;5012887;28;20397;-63
2021/10/13 00:52:20;;;;;;;8.77;5.38;;;;;;;9.56;72.65;100846.72;5013289;28;20057;-64
2021/10/13 00:54:50;;;;;;;9.90;4.95;;;;;;;9.57;72.83;100848.34;5013194;28;20058;-63
2021/10/13 00:57:19;;;;;;;8.85;5.10;;;;;;;9.45;72.70;100850.72;5013701;28;20061;-64
2021/10/13 00:59:46;;;;;;;12.90;5.10;;;;;;;9.44;73.03;100860.22;5013593;28;20057;-64
2021/10/13 01:02:21;;;;;;;10.73;4.88;;;;;;;9.39;72.77;100863.06;5013928;28;20049;-63
2021/10/13 01:05:05;;;;;;;11.00;5.47;;;;;;;9.38;73.11;100864.19;5013207;28;20488;-63
2021/10/13 01:07:44;;;;;;;10.15;5.28;;;;;;;9.29;73.29;100858.44;5013165;28;20057;-63
2021/10/13 01:10:19;;;;;;;10.07;5.77;;;;;;;9.23;72.80;100852.09;5012426;28;20392;-64
2021/10/13 01:12:56;;;;;;;9.30;5.50;;;;;;;9.14;73.51;100851.13;5012853;28;20500;-64
2021/10/13 01:15:30;;;;;;;12.38;6.20;;;;;;;9.06;74.08;100854.53;5012853;28;20419;-64
2021/10/13 01:18:05;;;;;;;13.80;5.85;;;;;;;8.99;73.84;100851.25;5013165;28;20403;-64
2021/10/13 01:20:47;;;;;;;13.27;6.38;;;;;;;8.92;73.93;100863.59;5013098;28;20468;-63
2021/10/13 01:23:47;;;;;;;14.23;6.60;;;;;;;8.81;73.95;100864.78;5012778;28;20050;-64
2021/10/13 01:26:22;;;;;;;14.45;6.18;;;;;;;8.74;73.85;100865.13;4972860;28;20486;-64
2021/10/13 01:28:54;;;;;;;15.90;6.70;;;;;;;8.68;74.77;100866.31;4992933;28;20065;-64
2021/10/13 01:31:26;;;;;;;14.38;7.75;;;;;;;8.63;74.08;100865.50;4993222;28;20058;-64
2021/10/13 01:34:01;;;;;;;17.45;7.40;;;;;;;8.58;74.05;100862.78;4993137;28;20050;-63
2021/10/13 01:36:33;;;;;;;12.65;7.35;;;;;;;8.53;73.89;100860.91;4993450;28;20050;-64
2021/10/13 01:39:01;;;;;;;14.07;7.80;;;;;;;8.46;73.95;100868.72;4997799;28;20054;-64
2021/10/13 01:41:30;;;;;;;19.42;8.65;;;;;;;8.40;74.52;100875.41;5020910;28;20054;-64
2021/10/13 01:44:03;;;;;;;11.50;7.70;;;;;;;8.34;74.60;100869.09;5032020;28;20064;-63
2021/10/13 01:46:32;;;;;;;12.57;7.55;;;;;;;8.27;74.44;100868.56;5032468;28;20057;-63
2021/10/13 01:49:04;;;;;;;19.85;8.45;;;;;;;8.23;74.21;100870.25;5032537;28;20049;-63
2021/10/13 01:51:32;;;;;;;18.42;8.30;;;;;;;8.20;75.13;100866.13;5032369;28;20058;-63
2021/10/13 01:54:02;;;;;;;15.90;7.97;;;;;;;8.19;74.96;100878.34;5029794;28;20053;-64
2021/10/13 01:56:32;;;;;;;13.10;8.27;;;;;;;8.25;75.57;100876.34;5013046;28;20057;-63
2021/10/13 01:59:03;;;;;;;14.43;8.52;;;;;;;8.27;75.37;100882.44;5012449;28;20073;-64
2021/10/13 02:01:33;;;;;;;16.35;7.97;;;;;;;8.31;75.29;100880.75;5015165;28;20412;-64
2021/10/13 02:04:02;;;;;;;;;;;;;;;8.30;75.57;100881.88;5012562;28;20424;-63
2021/10/13 02:06:32;;;;;;;13.80;8.48;;;;;;;8.37;75.27;100887.91;5012958;28;19921;-64
2021/10/13 02:09:00;;;;;;;;;;;;;;;8.38;75.90;100891.50;5012393;28;20054;-64
2021/10/13 02:11:29;;;;;;;14.32;7.93;;;;;;;8.44;75.95;100885.69;5012390;28;19921;-64
2021/10/13 02:14:01;;;;;;;15.52;8.25;;;;;;;8.54;75.89;100881.97;5012188;28;20050;-64
2021/10/13 02:16:33;;;;;;;12.82;7.63;;;;;;;8.62;75.46;100888.88;5012693;28;20176;-64
2021/10/13 02:19:02;;;;;;;15.00;7.78;;;;;;;8.65;76.54;100889.13;5012404;28;20058;-64
2021/10/13 02:21:31;;;;;;;14.38;7.55;;;;;;;8.73;75.93;100899.59;5012846;28;20053;-64
2021/10/13 02:23:59;;;;;;;12.15;7.20;;;;;;;8.86;76.46;100889.75;5011614;28;20042;-64
2021/10/13 02:26:34;;;;;;;11.43;7.25;;;;;;;8.94;75.56;100896.59;5012492;28;20054;-65
2021/10/13 02:29:06;;;;;;;11.25;7.30;;;;;;;8.98;75.81;100892.13;5015342;28;20063;-65
2021/10/13 02:31:34;;;;;;;14.13;6.70;;;;;;;9.03;75.32;100891.22;5015828;28;20397;-65
2021/10/13 02:34:02;;;;;;;12.82;6.68;;;;;;;9.09;75.14;100898.41;5015558;28;20065;-65
2021/10/13 02:36:29;;;;;;;12.85;7.20;;;;;;;9.16;74.71;100896.13;5015770;28;20081;-65
2021/10/13 02:38:57;;;;;;;13.27;6.47;;;;;;;9.21;74.53;100906.34;5014666;28;20050;-65
2021/10/13 02:41:24;;;;;;;10.00;5.90;;;;;;;9.25;74.35;100915.75;5015250;28;20056;-65
2021/10/13 02:43:52;;;;;;;11.50;6.40;;;;;;;9.27;74.29;100905.16;5014894;28;20057;-65
2021/10/13 02:46:25;;;;;;;10.23;7.05;;;;;;;9.24;74.37;100905.75;5015482;28;20057;-65
2021/10/13 02:49:01;;;;;;;12.73;6.32;;;;;;;9.25;74.36;100916.56;5015817;28;20511;-65
2021/10/13 02:51:37;;;;;;;11.95;6.45;;;;;;;9.30;74.51;100916.53;5014871;28;20054;-65
2021/10/13 02:54:11;;;;;;;11.07;6.40;;;;;;;9.32;74.16;100917.06;5015031;28;20061;-65
2021/10/13 02:56:41;;;;;;;11.43;6.65;;;;;;;9.43;74.28;100930.81;5014808;28;20056;-66
2021/10/13 02:59:13;;;;;;;13.07;6.97;;;;;;;9.42;74.20;100926.41;5013844;28;20053;-64
2021/10/13 03:01:44;;;;;;;13.80;7.90;;;;;;;9.49;74.05;100912.97;5012087;28;20061;-64
2021/10/13 03:04:17;;;;;;;10.68;6.40;;;;;;;9.44;74.28;100915.81;5011859;28;20811;-64
2021/10/13 03:06:52;;;;;;;13.43;7.53;;;;;;;9.46;74.57;100903.28;5011965;28;20049;-64
2021/10/13 03:09:22;;;;;;;13.73;7.45;;;;;;;9.56;74.10;100910.66;5011616;28;20057;-64
2021/10/13 03:11:51;;;;;;;14.07;7.72;;;;;;;9.46;74.15;100908.81;5012254;28;20484;-64
2021/10/13 03:14:22;;;;;;;14.48;7.80;;;;;;;9.51;74.47;100910.72;5012216;28;20057;-64
2021/10/13 03:16:51;;;;;;;13.25;8.02;;;;;;;9.52;74.18;100910.44;5012170;28;20061;-64
2021/10/13 03:19:22;;;;;;;16.35;9.50;;;;;;;9.50;74.44;100904.34;5012099;28;20065;-64
2021/10/13 03:21:54;;;;;;;14.02;8.45;;;;;;;9.51;74.22;100907.94;5011973;28;20058;-64
2021/10/13 03:24:25;;;;;;;14.27;7.95;;;;;;;9.44;74.16;100911.06;5011372;28;20053;-64
2021/10/13 03:26:52;;;;;;;15.50;8.98;;;;;;;9.43;74.45;100911.38;5013750;28;20485;-64
2021/10/13 03:29:21;;;;;;;16.38;8.93;;;;;;;9.50;74.07;100923.78;5015106;28;20057;-64
2021/10/13 03:31:49;;;;;;;17.00;9.65;;;;;;;9.54;74.29;100926.81;5015302;28;20492;-64
2021/10/13 03:34:17;;;;;;;12.70;9.57;;;;;;;9.56;74.42;100930.13;5015510;28;20050;-64
2021/10/13 03:36:51;;;;;;;16.30;9.93;;;;;;;9.56;74.29;100935.69;5015133;28;20400;-64
2021/10/13 03:39:19;;;;;;;13.98;9.32;;;;;;;9.59;73.83;100929.53;5014729;28;20054;-64
2021/10/13 03:41:46;;;;;;;14.25;9.68;;;;;;;9.55;73.98;100931.25;5015001;28;20041;-64
2021/10/13 03:44:14;;;;;;;15.30;9.73;;;;;;;9.57;74.76;100942.09;5014836;28;20595;-65
2021/10/13 03:46:44;;;;;;;15.85;9.63;;;;;;;9.64;74.37;100948.09;5014907;28;20065;-65
2021/10/13 03:49:12;;;;;;;14.07;8.45;;;;;;;9.69;74.65;100948.06;5014855;28;20058;-65
2021/10/13 03:51:39;;;;;;;14.13;9.05;;;;;;;9.78;74.39;100951.81;5014476;28;20058;-65
2021/10/13 03:54:08;;;;;;;17.63;9.43;;;;;;;9.79;74.18;100952.69;5013877;28;20053;-65
2021/10/13 03:56:36;;;;;;;16.05;9.82;;;;;;;9.83;73.69;100962.09;5014609;28;20053;-65
2021/10/13 03:59:03;;;;;;;15.07;9.50;;;;;;;9.88;73.60;100965.63;5014814;28;20058;-65
2021/10/13 04:01:33;;;;;;;14.75;10.02;;;;;;;9.76;73.68;100951.28;5014836;28;20061;-65
2021/10/13 04:04:00;;;;;;;16.20;10.88;;;;;;;9.83;74.15;100956.53;5014282;28;20053;-65
2021/10/13 04:06:28;;;;;;;14.50;10.43;;;;;;;9.86;73.75;100961.47;5015002;28;20054;-65
2021/10/13 04:08:55;;;;;;;16.63;9.52;;;;;;;9.85;73.66;100951.47;5014351;28;20061;-65
2021/10/13 04:11:24;;;;;;;16.08;10.00;;;;;;;9.79;73.40;100947.13;5014470;28;20054;-65
2021/10/13 04:13:51;;;;;;;15.10;11.60;;;;;;;9.79;73.43;100953.50;5014732;28;20480;-65
2021/10/13 04:16:19;;;;;;;17.42;11.70;;;;;;;9.81;73.50;100958.78;5014340;28;20057;-64
2021/10/13 04:18:48;;;;;;;16.50;11.82;;;;;;;9.81;73.61;100959.59;5014448;28;20050;-65
2021/10/13 04:21:16;;;;;;;18.70;11.88;;;;;;;9.84;73.43;100958.97;5013840;28;20068;-64
2021/10/13 04:23:43;;;;;;;23.23;13.75;;;;;;;9.85;73.62;100966.22;5013472;28;20049;-65
2021/10/13 04:26:11;;;;;;;27.52;15.68;;;;;;;9.79;73.30;100961.03;5013846;28;20054;-65
2021/10/13 04:28:40;;;;;;;25.55;16.55;;;;;;;9.77;73.30;100963.28;5014041;28;20058;-65
2021/10/13 04:31:07;;;;;;;27.65;17.25;;;;;;;9.72;74.01;100959.44;5014082;28;20530;-65
2021/10/13 04:33:34;;;;;;;29.65;17.85;;;;;;;9.60;73.95;100969.31;5014224;28;20073;-65
2021/10/13 04:36:02;;;;;;;30.67;20.60;;;;;;;9.53;74.75;100966.88;5013956;28;20408;-65
2021/10/13 04:38:29;;;;;;;36.25;20.10;;;;;;;9.47;74.94;100963.34;5013183;28;20053;-66
2021/10/13 04:40:59;;;;;;;36.90;21.20;;;;;;;9.31;75.03;100964.63;5014050;28;20065;-65
2021/10/13 04:43:26;;;;;;;34.30;21.23;;;;;;;9.26;75.19;100971.06;5014155;28;20054;-65
2021/10/13 04:45:55;;;;;;;30.48;20.52;;;;;;;9.21;75.29;100982.22;5013734;28;20049;-65
2021/10/13 04:48:23;;;;;;;33.17;20.90;;;;;;;9.22;75.39;100975.53;5013805;28;20057;-65
2021/10/13 04:50:50;;;;;;;33.15;21.27;;;;;;;9.28;75.31;100985.50;5014530;28;20503;-65
2021/10/13 04:53:18;;;;;;;35.47;20.92;;;;;;;9.27;75.57;100991.34;5013778;28;20069;-65
2021/10/13 04:55:45;;;;;;;34.17;20.33;;;;;;;9.38;75.91;100978.16;5014008;28;20061;-65
2021/10/13 04:58:13;;;;;;;28.23;19.20;;;;;;;9.46;75.88;100989.47;5012911;28;20065;-64
2021/10/13 05:00:40;;;;;;;29.85;18.33;;;;;;;9.54;76.10;100982.44;5013204;28;20061;-65
2021/10/13 05:03:10;;;;;;;28.85;18.05;;;;;;;9.55;75.75;100984.09;5012814;28;20061;-65
2021/10/13 05:05:38;;;;;;;30.08;18.58;;;;;;;9.63;75.80;100982.63;5012732;28;20057;-65
2021/10/13 05:08:06;;;;;;;26.92;18.50;;;;;;;9.58;75.99;100988.25;5013137;28;20061;-65
2021/10/13 05:10:35;;;;;;;28.45;18.10;;;;;;;9.61;76.15;100987.66;5012179;28;20397;-65
2021/10/13 05:13:03;;;;;;;27.58;19.05;;;;;;;9.70;75.54;100986.72;5012302;28;20049;-65
2021/10/13 05:15:30;;;;;;;28.35;19.02;;;;;;;9.58;75.53;100975.16;5012574;28;20064;-65
2021/10/13 05:17:57;;;;;;;29.92;19.45;;;;;;;9.63;75.34;100989.00;5013312;28;20046;-65
2021/10/13 05:20:26;;;;;;;28.50;19.15;;;;;;;9.74;74.59;100987.78;5011776;28;20049;-65
2021/10/13 05:22:53;;;;;;;34.00;20.90;;;;;;;9.75;75.11;100994.16;5011364;28;20515;-65
2021/10/13 05:25:21;;;;;;;34.58;22.30;;;;;;;9.69;75.22;101001.72;5012901;28;20058;-64
2021/10/13 05:27:48;;;;;;;36.35;22.25;;;;;;;9.74;75.15;100998.06;5012684;28;20057;-65
2021/10/13 05:30:16;;;;;;;37.85;23.83;;;;;;;9.79;75.04;101009.13;5012562;28;20060;-65
2021/10/13 05:32:43;;;;;;;34.97;22.88;;;;;;;9.83;75.04;101001.84;5013055;28;20384;-65
2021/10/13 05:35:10;;;;;;;36.50;21.95;;;;;;;9.79;74.80;100994.41;5012708;28;20515;-65
2021/10/13 05:37:39;;;;;;;33.90;22.95;;;;;;;9.83;75.02;100996.28;5012423;28;20531;-65
2021/10/13 05:40:07;;;;;;;39.40;23.70;;;;;;;9.78;75.06;101001.91;5012164;28;20057;-64
2021/10/13 05:42:35;;;;;;;33.53;23.05;;;;;;;9.61;75.28;100994.03;5013106;28;20058;-65
2021/10/13 05:45:05;;;;;;;34.72;23.98;;;;;;;9.66;75.15;100995.91;5012318;28;20057;-65
2021/10/13 05:47:32;;;;;;;;;;;;;;;9.55;75.55;101000.78;5013259;28;20480;-65
2021/10/13 05:49:59;;;;;;;34.45;23.02;;;;;;;9.62;75.48;101006.84;5011916;28;19921;-65
2021/10/13 05:52:27;;;;;;;33.78;22.80;;;;;;;9.64;75.35;100999.03;5012218;28;20511;-65
2021/10/13 05:54:55;;;;;;;36.80;23.27;;;;;;;9.70;75.46;101008.97;5010622;28;20480;-65
2021/10/13 05:57:23;;;;;;;39.33;22.88;;;;;;;9.78;74.75;101009.44;5011954;28;20054;-65
2021/10/13 05:59:56;;;;;;;34.72;22.23;;;;;;;9.75;74.94;101014.47;5011948;28;20045;-65
2021/10/13 06:02:24;;;;;;;37.90;22.45;;;;;;;9.82;74.88;101027.19;5017280;28;20057;-65
2021/10/13 06:04:51;;;;;;;35.35;22.52;;;;;;;9.87;75.02;101035.47;5011823;28;20493;-65
2021/10/13 06:07:19;;;;;;;30.88;21.95;;;;;;;9.96;74.65;101034.53;5011641;28;20538;-65
2021/10/13 06:09:46;;;;;;;30.58;21.80;;;;;;;10.04;74.72;101030.28;5027311;28;20061;-65
2021/10/13 06:12:15;;;;;;;31.55;21.27;;;;;;;10.08;74.27;101020.19;5032514;28;20072;-65
2021/10/13 06:14:42;;;;;;;33.83;21.95;;;;;;;10.11;73.83;101029.91;5014989;28;20049;-60
2021/10/13 06:17:10;;;;;;;28.55;20.25;;;;;;;10.11;74.21;101046.59;5011537;28;20049;-60
2021/10/13 06:19:37;;;;;;;27.38;20.63;;;;;;;10.04;74.30;101049.75;5030103;28;20053;-59
2021/10/13 06:22:05;;;;;;;28.38;20.65;;;;;;;10.15;74.03;101045.72;5021802;28;20507;-60
2021/10/13 06:24:35;;;;;;;30.63;21.17;;;;;;;10.21;73.73;101042.88;5014795;28;20451;-58
2021/10/13 06:27:02;;;;;;;29.60;21.00;;;;;;;10.01;74.31;101050.34;5012246;28;20496;-60
2021/10/13 06:29:32;;;;;;;31.65;20.67;;;;;;;10.24;73.51;101050.63;5015637;28;21215;-60
2021/10/13 06:31:59;;;;;;;29.00;19.13;;;;;;;10.05;74.07;101056.97;5011302;28;20046;-59
2021/10/13 06:34:27;;;;;;;30.13;20.20;;;;;;;10.20;73.73;101066.25;5011006;28;20041;-60
2021/10/13 06:36:54;;;;;;;27.50;18.38;;;;;;;10.38;73.28;101059.94;5012427;28;20050;-60
2021/10/13 06:39:21;;;;;;;24.92;18.15;;;;;;;10.44;72.91;101061.53;5011637;28;20062;-60
2021/10/13 06:41:49;;;;;;;25.27;16.88;;;;;;;10.50;72.91;101063.13;5011886;28;20065;-60
2021/10/13 06:44:16;;;;;;;25.55;17.85;;;;;;;10.42;73.36;101069.34;5011320;28;20049;-59
2021/10/13 06:46:45;;;;;;;22.92;16.77;;;;;;;10.69;72.78;101074.28;5012238;28;20474;-60
2021/10/13 06:49:13;;;;;;;19.77;16.05;;;;;;;10.81;72.42;101065.44;5010909;28;20049;-59
2021/10/13 06:51:42;;;;;;;26.27;15.40;;;;;;;10.89;71.85;101070.34;5011572;28;20054;-60
2021/10/13 06:54:09;;;;;;;23.57;16.23;;;;;;;10.93;71.88;101076.97;5011344;28;20061;-59
2021/10/13 06:56:37;;;;;;;26.13;17.15;;;;;;;10.93;72.58;101082.53;5012207;28;20050;-59
2021/10/13 06:59:04;;;;;;;23.88;15.90;;;;;;;11.04;72.07;101079.59;5011486;28;20050;-60
2021/10/13 07:01:33;;;;;;;23.77;16.75;;;;;;;11.20;71.83;101071.84;5013921;28;20479;-60
2021/10/13 07:04:02;;;;;;;27.00;18.40;;;;;;;11.35;71.58;101077.97;5015396;28;20053;-61
2021/10/13 07:06:29;;;;;;;33.05;21.50;;;;;;;11.42;70.95;101072.00;5007196;28;20060;-61
2021/10/13 07:08:56;;;;;;;32.58;21.52;;;;;;;11.72;70.50;101079.00;5000869;28;20054;-60
2021/10/13 07:11:24;;;;;;;37.00;22.33;;;;;;;11.97;69.80;101069.34;5009646;28;20595;-61
2021/10/13 07:13:52;;;;;;;40.80;26.33;;;;;;;11.95;69.30;101081.97;5012195;28;20393;-60
2021/10/13 07:16:20;;;;;;;37.28;24.75;;;;;;;12.11;68.05;101083.31;5008417;28;20050;-60
2021/10/13 07:18:47;;;;;;;36.83;24.23;;;;;;;12.01;68.43;101077.09;5012932;28;20066;-60
2021/10/13 07:21:16;;;;;;;34.90;21.60;;;;;;;11.97;68.57;101085.28;5013410;28;20053;-59
2021/10/13 07:23:43;;;;;;;39.47;22.40;;;;;;;11.95;68.65;101093.13;5015917;28;20053;-61
2021/10/13 07:26:11;;;;;;;28.85;19.88;;;;;;;12.06;67.82;101086.22;5012262;28;20058;-60
2021/10/13 07:28:41;;;;;;;34.03;20.38;;;;;;;11.82;68.25;101091.94;5014328;28;20081;-60
2021/10/13 07:31:08;;;;;;;31.80;21.23;;;;;;;12.02;68.40;101096.34;5013616;28;20388;-60
2021/10/13 07:33:36;;;;;;;29.63;19.40;;;;;;;12.12;67.93;101096.16;5013842;28;20484;-60
2021/10/13 07:36:06;;;;;;;26.80;19.25;;;;;;;11.92;68.97;101090.94;5013259;28;20042;-60
2021/10/13 07:38:38;;;;;;;29.83;19.60;;;;;;;12.16;67.71;101088.81;5013043;28;20412;-60
2021/10/13 07:41:05;;;;;;;27.67;17.40;;;;;;;12.35;67.38;101083.09;5012842;28;20057;-61
2021/10/13 07:43:33;;;;;;;25.83;17.75;;;;;;;12.72;66.86;101086.75;5021842;28;20049;-60
2021/10/13 07:46:01;;;;;;;20.65;15.20;;;;;;;13.36;64.26;101095.09;5021369;28;20053;-61
2021/10/13 07:48:28;;;;;;;26.23;15.20;;;;;;;13.63;63.99;101093.31;5027913;28;20057;-61
2021/10/13 07:50:56;;;;;;;23.52;14.98;;;;;;;13.51;63.88;101091.06;5020104;28;20531;-60
2021/10/13 07:53:23;;;;;;;23.08;15.13;;;;;;;13.63;63.21;101093.31;5012684;28;20416;-61
2021/10/13 07:55:52;;;;;;;22.65;15.73;;;;;;;13.71;62.50;101095.31;5017161;28;20057;-60
2021/10/13 07:58:19;;;;;;;25.65;15.95;;;;;;;13.91;62.01;101095.91;5030155;28;20405;-60
2021/10/13 08:00:47;;;;;;;22.48;15.63;;;;;;;13.99;61.90;101095.13;5022819;28;20113;-61
2021/10/13 08:03:14;;;;;;;21.98;15.75;;;;;;;14.20;60.63;101093.41;5027699;28;20041;-60
2021/10/13 08:05:41;;;;;;;22.90;15.98;;;;;;;14.38;60.09;101096.25;5023970;28;20050;-61
2021/10/13 08:08:11;;;;;;;22.70;15.73;;;;;;;14.30;60.08;101097.91;5031107;28;20050;-61
2021/10/13 08:10:38;;;;;;;22.48;15.43;;;;;;;14.21;60.80;101108.22;5023341;28;20053;-61
2021/10/13 08:13:07;;;;;;;22.17;13.63;;;;;;;14.63;60.09;101121.94;5025223;28;20056;-60
2021/10/13 08:15:34;;;;;;;18.92;12.40;;;;;;;15.10;59.86;101128.63;5024268;28;20054;-61
2021/10/13 08:18:02;;;;;;;17.98;11.63;;;;;;;15.39;58.15;101118.69;5023867;28;20050;-61
2021/10/13 08:20:29;;;;;;;15.32;10.82;;;;;;;16.50;55.07;101117.91;5011607;28;20053;-61
2021/10/13 08:22:57;;;;;;;20.70;10.60;;;;;;;17.11;53.39;101122.34;5011741;28;20061;-61
2021/10/13 08:25:24;;;;;;;15.77;10.57;;;;;;;17.10;52.57;101121.53;5012703;28;20061;-61
2021/10/13 08:27:52;;;;;;;13.32;8.35;;;;;;;16.75;53.20;101123.72;5019508;28;20058;-60
2021/10/13 08:30:20;;;;;;;16.05;9.52;;;;;;;16.81;54.86;101130.81;5018034;28;20057;-61
2021/10/13 08:32:48;;;;;;;14.87;8.23;;;;;;;16.50;55.01;101131.13;5023359;28;20393;-60
2021/10/13 08:35:15;;;;;;;13.80;7.97;;;;;;;16.27;55.70;101133.41;5012423;28;20403;-60
2021/10/13 08:37:43;;;;;;;14.95;8.00;;;;;;;16.01;56.31;101137.13;5012372;28;20065;-61
2021/10/13 08:40:12;;;;;;;13.25;8.10;;;;;;;15.72;56.47;101130.25;5015329;28;20049;-61
2021/10/13 08:42:52;;;;;;;12.95;7.18;;;;;;;15.41;57.05;101130.41;5030932;28;20054;-61
2021/10/13 08:45:22;;;;;;;11.02;6.88;;;;;;;15.41;56.90;101136.03;5024988;28;20050;-61
2021/10/13 08:47:49;;;;;;;11.38;6.93;;;;;;;15.48;57.10;101141.16;5021202;28;20054;-61
2021/10/13 08:50:17;;;;;;;11.25;7.03;;;;;;;15.75;56.79;101134.41;5025110;28;20061;-60
2021/10/13 08:52:47;;;;;;;11.73;6.28;;;;;;;16.14;55.49;101138.88;5020213;28;20060;-60
2021/10/13 08:55:15;;;;;;;9.30;5.50;;;;;;;16.87;52.62;101135.09;5011291;28;20050;-60
2021/10/13 08:57:42;;;;;;;12.15;5.90;;;;;;;16.32;53.25;101141.66;5026552;28;20053;-61
2021/10/13 09:00:10;;;;;;;9.20;5.65;;;;;;;16.27;53.33;101139.84;5020807;28;20057;-61
2021/10/13 09:02:45;;;;;;;12.82;6.88;;;;;;;16.36;54.60;101149.06;5030263;28;20518;-60
2021/10/13 09:05:14;;;;;;;9.50;5.68;;;;;;;16.39;53.93;101145.56;5021868;28;20431;-60
2021/10/13 09:07:49;;;;;;;12.10;6.15;;;;;;;16.50;53.96;101142.38;5030941;28;20053;-60
2021/10/13 09:10:27;;;;;;;10.45;5.70;;;;;;;16.73;53.94;101142.94;5014420;28;20064;-60
2021/10/13 09:12:54;;;;;;;9.70;4.88;;;;;;;16.68;52.41;101141.13;5014002;28;20069;-61
2021/10/13 09:15:25;;;;;;;9.52;4.95;;;;;;;16.81;52.79;101128.84;5022462;28;20488;-60
2021/10/13 09:17:56;;;;;;;9.95;4.55;;;;;;;17.11;51.23;101139.22;5030493;28;20077;-60
2021/10/13 09:20:26;;;;;;;13.40;5.07;;;;;;;17.19;51.57;101143.97;5018589;28;20527;-61
2021/10/13 09:23:02;;;;;;;10.65;5.40;;;;;;;17.15;51.81;101140.19;5012854;28;20054;-60
2021/10/13 09:25:30;;;;;;;10.65;5.65;;;;;;;17.01;52.57;101152.56;5021398;28;20053;-60
2021/10/13 09:27:58;;;;;;;12.52;5.97;;;;;;;17.04;53.28;101140.59;5026444;28;20050;-59
2021/10/13 09:30:32;;;;;;;10.75;5.65;;;;;;;16.80;53.35;101149.72;5026135;28;20415;-61
2021/10/13 09:33:12;;;;;;;8.45;4.95;;;;;;;16.78;52.42;101143.56;5031223;28;20049;-60
2021/10/13 09:35:45;;;;;;;10.52;5.30;;;;;;;16.77;52.90;101147.53;5002636;28;20057;-60
2021/10/13 09:38:15;;;;;;;10.60;6.15;;;;;;;16.77;52.24;101146.72;5010441;28;20369;-61
2021/10/13 09:40:42;;;;;;;;;;;;;;;16.55;52.80;101145.84;5018597;28;20068;-61
2021/10/13 09:43:28;;;;;;;10.43;5.70;;;;;;;17.13;52.07;101146.16;5029315;28;19921;-60
2021/10/13 09:46:02;;;;;;;10.68;5.25;;;;;;;18.69;48.47;101144.88;5018429;28;20049;-60
2021/10/13 09:48:34;;;;;;;8.57;5.35;;;;;;;19.34;46.53;101145.75;5012014;28;20057;-61
2021/10/13 09:51:14;;;;;;;11.65;5.80;;;;;;;18.59;47.05;101149.81;5010992;28;20061;-60
2021/10/13 09:53:43;;;;;;;9.63;5.20;;;;;;;19.55;45.46;101151.22;5013985;28;20435;-60
2021/10/13 09:56:33;;;;;;;10.30;4.95;;;;;;;20.71;43.47;101141.00;5011235;28;20389;-60
2021/10/13 09:59:11;;;;;;;10.52;5.57;;;;;;;22.47;38.99;101134.13;5021399;28;20053;-60
2021/10/13 10:01:41;;;;;;;8.25;5.70;;;;;;;22.24;39.67;101132.09;5026020;28;20065;-61
2021/10/13 10:04:12;;;;;;;;;;;;;;;23.34;38.20;101122.03;5028156;28;20415;-60
2021/10/13 10:06:41;;;;;;;9.20;4.55;;;;;;;24.05;35.87;101124.91;5010914;28;19929;-61
2021/10/13 10:09:09;;;;;;;9.82;5.00;;;;;;;24.67;34.85;101118.53;5007545;28;20049;-61
2021/10/13 10:11:39;;;;;;;10.90;5.00;;;;;;;23.62;36.24;101130.91;5012425;28;20052;-61
2021/10/13 10:14:41;;;;;;;8.05;4.30;;;;;;;22.60;38.37;101129.88;5032124;28;20491;-61
2021/10/13 10:17:10;;;;;;;10.52;5.18;;;;;;;22.16;39.62;101141.66;5019324;28;20049;-60
2021/10/13 10:19:42;;;;;;;;;;;;;;;21.35;40.10;101142.44;5011790;28;20061;-61
2021/10/13 10:22:12;;;;;;;8.57;4.65;;;;;;;21.97;39.37;101138.88;5017778;28;19930;-60
2021/10/13 10:24:41;;;;;;;8.85;4.45;;;;;;;23.62;36.62;101135.75;5020774;28;20224;-60
2021/10/13 10:27:30;;;;;;;9.30;4.03;;;;;;;24.96;34.07;101127.28;5025688;28;20068;-61
2021/10/13 10:30:15;;;;;;;9.80;4.63;;;;;;;25.26;32.93;101127.06;5028537;28;20053;-60
2021/10/13 10:32:44;;;;;;;9.02;4.32;;;;;;;25.38;32.75;101134.47;5025727;28;20491;-61
2021/10/13 10:35:16;;;;;;;11.20;4.80;;;;;;;25.30;33.31;101136.47;5022920;28;20491;-60
2021/10/13 10:37:45;;;;;;;9.70;4.35;;;;;;;24.60;34.41;101138.44;5016182;28;20468;-60
2021/10/13 10:40:16;;;;;;;8.27;4.55;;;;;;;24.27;34.37;101137.31;5023799;28;20049;-61
2021/10/13 10:43:02;;;;;;;7.90;3.92;;;;;;;24.00;35.63;101139.47;5013420;28;20068;-61
2021/10/13 10:45:35;;;;;;;7.82;3.67;;;;;;;23.78;35.86;101139.25;5027790;28;20058;-61
2021/10/13 10:48:16;;;;;;;8.10;4.30;;;;;;;23.79;35.82;101135.22;5014121;28;20392;-62
2021/10/13 10:51:03;;;;;;;10.60;4.50;;;;;;;23.28;36.88;101141.44;5015437;28;20496;-60
2021/10/13 10:53:37;;;;;;;6.68;3.50;;;;;;;23.36;36.10;101153.72;5015515;28;20141;-61
2021/10/13 10:56:23;;;;;;;6.72;3.10;;;;;;;23.71;36.55;101145.66;5015566;28;20046;-60
2021/10/13 10:59:23;;;;;;;5.90;3.17;;;;;;;23.24;36.32;101143.41;5015947;28;20062;-61
2021/10/13 11:02:09;;;;;;;6.95;2.78;;;;;;;23.28;37.36;101145.09;5015059;28;20498;-60
2021/10/13 11:04:37;;;;;;;8.40;3.42;;;;;;;23.13;36.67;101145.28;5014742;28;20061;-61
2021/10/13 11:07:18;;;;;;;8.88;3.75;;;;;;;22.85;36.68;101144.47;5015733;28;20380;-61
2021/10/13 11:09:45;;;;;;;8.07;3.72;;;;;;;22.61;37.72;101154.19;5027167;28;20057;-61
2021/10/13 11:12:13;;;;;;;10.48;4.47;;;;;;;22.38;38.25;101150.56;5015629;28;20061;-61
2021/10/13 11:14:40;;;;;;;6.78;3.28;;;;;;;21.86;39.03;101150.00;5015333;28;20495;-61
2021/10/13 11:17:09;;;;;;;6.07;3.40;;;;;;;21.68;39.55;101150.44;5015572;28;20053;-60
2021/10/13 11:19:39;;;;;;;7.65;3.90;;;;;;;20.78;41.03;101146.81;5013002;28;20385;-61
2021/10/13 11:22:10;;;;;;;7.55;3.13;;;;;;;20.92;41.17;101147.16;5020193;28;20049;-61
2021/10/13 11:24:39;;;;;;;7.68;3.58;;;;;;;21.22;41.50;101143.78;5017581;28;20049;-60
2021/10/13 11:27:07;;;;;;;8.18;3.90;;;;;;;21.45;40.16;101146.75;5013561;28;20495;-61
2021/10/13 11:29:36;;;;;;;9.93;4.22;;;;;;;21.84;38.84;101141.88;5014795;28;20053;-62
2021/10/13 11:32:12;;;;;;;7.28;3.85;;;;;;;22.03;38.63;101143.03;4996559;28;20065;-62
2021/10/13 11:34:41;;;;;;;7.47;3.40;;;;;;;22.13;39.32;101148.06;5010654;28;20058;-62